Time;durP1;ratioP1;P1;durP2;ratioP2;P2;SDS_P1;SDS_P2;PMS_P1;PMS_P2;Temp;Humidity;BMP_temperature;BMP_pressure;BME280_temperature;BME280_humidity;BME280_pressure;Samples;Min_cycle;Max_cycle;Signal;HPM_P1;HPM_P2
2023/02/25 00:01:23;;;;;;;0.20;0.20;;;2.10;99.90;;;;;;4992934;28;20561;-82
2023/02/25 00:03:54;;;;;;;0.10;0.10;;;2.10;99.90;;;;;;5000520;28;20597;-83
2023/02/25 00:06:21;;;;;;;0.10;0.10;;;2.10;99.90;;;;;;4994835;28;20022;-83
2023/02/25 00:08:48;;;;;;;0.10;0.10;;;2.00;99.90;;;;;;4993225;28;20120;-83
2023/02/25 00:11:14;;;;;;;;;;;2.00;99.90;;;;;;5000697;28;20103;-84
2023/02/25 00:13:41;;;;;;;0.10;0.10;;;1.90;99.90;;;;;;4976970;28;19913;-83
2023/02/25 00:16:07;;;;;;;5.53;0.70;;;1.90;99.90;;;;;;4995242;28;20045;-83
2023/02/25 00:18:34;;;;;;;2.90;1.75;;;1.90;99.90;;;;;;4989546;28;20495;-82
2023/02/25 00:21:04;;;;;;;0.43;0.43;;;1.80;99.90;;;;;;4995921;28;20025;-84
2023/02/25 00:23:29;;;;;;;0.20;0.20;;;1.90;99.90;;;;;;4973137;28;20041;-83
2023/02/25 00:26:02;;;;;;;0.10;0.10;;;1.80;99.90;;;;;;4994177;28;20138;-84
2023/02/25 00:28:28;;;;;;;0.10;0.10;;;1.80;99.90;;;;;;4994641;28;20145;-85
2023/02/25 00:30:54;;;;;;;0.10;0.10;;;1.70;99.90;;;;;;4996013;28;20030;-85
2023/02/25 00:33:20;;;;;;;0.10;0.10;;;1.70;99.90;;;;;;4994790;28;20041;-85
2023/02/25 00:35:48;;;;;;;0.25;0.25;;;1.70;99.90;;;;;;4999352;28;20029;-85
2023/02/25 00:38:14;;;;;;;0.17;0.17;;;1.70;99.90;;;;;;4995463;28;20306;-85
2023/02/25 00:40:40;;;;;;;0.10;0.10;;;2.00;99.90;;;;;;4996734;28;20499;-83
2023/02/25 00:43:06;;;;;;;0.10;0.10;;;2.00;99.90;;;;;;4997422;28;20824;-83
2023/02/25 00:45:33;;;;;;;0.10;0.10;;;1.90;99.90;;;;;;4982534;28;20026;-83
2023/02/25 00:47:58;;;;;;;0.10;0.10;;;1.80;99.90;;;;;;4990400;28;20031;-83
2023/02/25 00:50:25;;;;;;;0.30;0.30;;;1.80;99.90;;;;;;4998118;28;20085;-84
2023/02/25 00:52:50;;;;;;;0.57;0.57;;;1.70;99.90;;;;;;4989544;28;20097;-83
2023/02/25 00:55:16;;;;;;;0.00;0.00;;;1.70;99.90;;;;;;4998455;28;20433;-83
2023/02/25 00:57:42;;;;;;;0.22;0.22;;;1.70;99.90;;;;;;4992684;28;20651;-83
2023/02/25 01:00:14;;;;;;;0.15;0.15;;;1.80;99.90;;;;;;4992989;28;20449;-84
2023/02/25 01:02:41;;;;;;;1.55;1.45;;;1.70;99.90;;;;;;4993330;28;20090;-84
2023/02/25 01:05:08;;;;;;;0.20;0.20;;;1.80;99.90;;;;;;4996698;28;20088;-83
2023/02/25 01:07:33;;;;;;;0.20;0.20;;;1.70;99.90;;;;;;4996474;28;20101;-83
2023/02/25 01:09:59;;;;;;;0.10;0.10;;;1.70;99.90;;;;;;4993600;28;20489;-83
2023/02/25 01:12:25;;;;;;;0.13;0.13;;;1.60;99.90;;;;;;4988907;28;20505;-84
2023/02/25 01:14:53;;;;;;;0.10;0.10;;;1.60;99.90;;;;;;4998603;28;20040;-83
2023/02/25 01:17:19;;;;;;;0.20;0.20;;;1.70;99.90;;;;;;5001533;28;20037;-81
2023/02/25 01:19:45;;;;;;;0.15;0.15;;;1.60;99.90;;;;;;4996928;28;20290;-81
2023/02/25 01:22:10;;;;;;;0.20;0.20;;;1.60;99.90;;;;;;4996027;28;20026;-80
2023/02/25 01:24:36;;;;;;;0.22;0.22;;;1.70;99.90;;;;;;4995974;28;20038;-80
2023/02/25 01:27:03;;;;;;;0.75;0.75;;;1.70;99.90;;;;;;4993697;28;20036;-81
2023/02/25 01:29:35;;;;;;;0.00;0.00;;;1.50;99.90;;;;;;4989371;28;20034;-80
2023/02/25 01:32:03;;;;;;;0.17;0.17;;;1.60;99.90;;;;;;4993513;28;20038;-81
2023/02/25 01:34:29;;;;;;;0.20;0.20;;;1.50;99.90;;;;;;4994795;28;20033;-83
2023/02/25 01:36:55;;;;;;;0.10;0.10;;;1.50;99.90;;;;;;4997454;28;20150;-83
2023/02/25 01:39:22;;;;;;;0.10;0.10;;;1.50;99.90;;;;;;5002007;28;20034;-86
2023/02/25 01:41:49;;;;;;;0.10;0.10;;;1.50;99.90;;;;;;4985744;28;20057;-85
2023/02/25 01:44:21;;;;;;;0.40;0.30;;;1.50;99.90;;;;;;4994633;28;20053;-85
2023/02/25 01:46:49;;;;;;;0.20;0.20;;;1.50;99.90;;;;;;4996351;28;20563;-84
2023/02/25 01:49:30;;;;;;;0.10;0.10;;;1.50;99.90;;;;;;5001678;28;20099;-86
2023/02/25 01:52:10;;;;;;;0.32;0.32;;;1.50;99.90;;;;;;5001270;28;20104;-85
2023/02/25 01:54:36;;;;;;;0.20;0.20;;;1.40;99.90;;;;;;5003655;28;20517;-85
2023/02/25 01:57:07;;;;;;;0.30;0.30;;;1.50;99.90;;;;;;4987122;28;21244;-85
2023/02/25 01:59:34;;;;;;;0.10;0.10;;;1.60;99.90;;;;;;5003153;28;20031;-85
2023/02/25 02:02:00;;;;;;;0.20;0.20;;;1.60;99.90;;;;;;5004331;28;20057;-85
2023/02/25 02:04:27;;;;;;;0.20;0.20;;;1.60;99.90;;;;;;4998564;28;20058;-84
2023/02/25 02:06:54;;;;;;;0.10;0.10;;;1.60;99.90;;;;;;4995615;28;20030;-84
2023/02/25 02:09:26;;;;;;;0.10;0.10;;;1.90;99.90;;;;;;4999396;28;20096;-83
2023/02/25 02:11:52;;;;;;;0.30;0.30;;;2.00;99.90;;;;;;4993600;28;20080;-84
2023/02/25 02:14:21;;;;;;;0.20;0.20;;;1.80;99.90;;;;;;4992025;28;20026;-85
2023/02/25 02:17:21;;;;;;;0.10;0.10;;;1.80;99.90;;;;;;4997899;28;20133;-84
2023/02/25 02:19:47;;;;;;;0.10;0.10;;;1.90;99.90;;;;;;4994897;28;20030;-84
2023/02/25 02:22:17;;;;;;;0.20;0.20;;;1.70;99.90;;;;;;4997310;28;20026;-83
2023/02/25 02:25:10;;;;;;;0.63;0.63;;;1.60;99.90;;;;;;5000286;28;20038;-83
2023/02/25 02:28:13;;;;;;;0.10;0.10;;;1.70;99.90;;;;;;4996493;28;20030;-83
2023/02/25 02:30:45;;;;;;;0.10;0.10;;;1.60;99.90;;;;;;4994659;28;20057;-81
2023/02/25 02:34:10;;;;;;;0.10;0.10;;;1.70;99.90;;;;;;4998125;28;20034;-83
2023/02/25 02:36:55;;;;;;;0.20;0.20;;;1.70;99.90;;;;;;4945309;28;20110;-84
2023/02/25 02:39:45;;;;;;;0.30;0.30;;;1.50;99.90;;;;;;5001072;28;20171;-83
2023/02/25 02:42:16;;;;;;;0.10;0.10;;;1.40;99.90;;;;;;4991931;28;20106;-84
2023/02/25 02:45:07;;;;;;;0.10;0.10;;;1.50;99.90;;;;;;5000046;28;20108;-83
2023/02/25 02:47:53;;;;;;;0.20;0.20;;;1.50;99.90;;;;;;5001642;28;20033;-84
2023/02/25 02:50:32;;;;;;;0.17;0.17;;;1.40;99.90;;;;;;4989632;28;20050;-83
2023/02/25 02:53:12;;;;;;;0.10;0.10;;;1.60;99.90;;;;;;5003732;28;20057;-84
2023/02/25 02:55:47;;;;;;;0.10;0.10;;;1.50;99.90;;;;;;4999519;28;20033;-83
2023/02/25 02:58:22;;;;;;;0.10;0.10;;;1.50;99.90;;;;;;5000539;28;20559;-84
2023/02/25 03:00:54;;;;;;;0.10;0.10;;;1.60;99.90;;;;;;4991220;28;20413;-84
2023/02/25 03:03:35;;;;;;;0.10;0.10;;;2.00;99.90;;;;;;4996123;28;20440;-86
2023/02/25 03:06:06;;;;;;;0.10;0.10;;;1.70;99.90;;;;;;4994410;28;20900;-86
2023/02/25 03:08:40;;;;;;;0.10;0.10;;;1.80;99.90;;;;;;4998681;28;20065;-85
2023/02/25 03:11:05;;;;;;;0.20;0.20;;;1.90;99.90;;;;;;5000950;28;20065;-85
2023/02/25 03:13:31;;;;;;;0.70;0.70;;;1.90;99.90;;;;;;5003729;28;20105;-86
2023/02/25 03:16:00;;;;;;;0.10;0.10;;;2.00;99.90;;;;;;5000186;28;20473;-85
2023/02/25 03:18:58;;;;;;;0.20;0.20;;;1.90;99.90;;;;;;5000363;28;20034;-84
2023/02/25 03:21:29;;;;;;;0.10;0.10;;;1.90;99.90;;;;;;4987544;28;20037;-85
2023/02/25 03:23:55;;;;;;;0.47;0.47;;;1.70;99.90;;;;;;4996922;28;20560;-84
2023/02/25 03:26:31;;;;;;;0.43;0.43;;;1.60;99.90;;;;;;4992114;28;20462;-84
2023/02/25 03:28:57;;;;;;;0.10;0.10;;;1.70;99.90;;;;;;4996099;28;20518;-84
2023/02/25 03:31:39;;;;;;;0.10;0.10;;;1.60;99.90;;;;;;4998508;28;20057;-85
2023/02/25 03:34:20;;;;;;;0.10;0.10;;;1.50;99.90;;;;;;4980069;28;20066;-83
2023/02/25 03:36:55;;;;;;;0.30;0.30;;;1.70;99.90;;;;;;5000149;28;20034;-83
2023/02/25 03:39:26;;;;;;;0.10;0.10;;;1.60;99.90;;;;;;4998324;28;20207;-83
2023/02/25 03:41:56;;;;;;;0.10;0.10;;;1.30;99.90;;;;;;4995966;28;20034;-81
2023/02/25 03:44:28;;;;;;;0.10;0.10;;;1.30;99.90;;;;;;4995492;28;20038;-82
2023/02/25 03:46:55;;;;;;;0.10;0.10;;;1.20;99.90;;;;;;4981378;28;20030;-83
2023/02/25 03:49:26;;;;;;;0.20;0.20;;;1.20;99.90;;;;;;4982231;28;20076;-82
2023/02/25 03:51:54;;;;;;;0.10;0.10;;;1.30;99.90;;;;;;4998093;28;20118;-82
2023/02/25 03:54:20;;;;;;;0.10;0.10;;;1.30;99.90;;;;;;4998900;28;20030;-82
2023/02/25 03:56:48;;;;;;;0.10;0.10;;;1.10;99.90;;;;;;4996125;28;20038;-82
2023/02/25 03:59:15;;;;;;;0.10;0.10;;;1.20;99.90;;;;;;4977748;28;20030;-82
2023/02/25 04:01:44;;;;;;;0.55;0.32;;;1.40;99.90;;;;;;4998845;28;20493;-84
2023/02/25 04:04:10;;;;;;;0.00;0.00;;;1.30;99.90;;;;;;4992181;28;20113;-82
2023/02/25 04:06:36;;;;;;;0.10;0.10;;;1.30;99.90;;;;;;4996641;28;20026;-84
2023/02/25 04:09:02;;;;;;;0.10;0.10;;;1.30;99.90;;;;;;4991612;28;20026;-85
2023/02/25 04:11:28;;;;;;;0.10;0.10;;;1.20;99.90;;;;;;4996526;28;20133;-83
2023/02/25 04:13:54;;;;;;;0.10;0.10;;;1.30;99.90;;;;;;4995749;28;20026;-83
2023/02/25 04:16:20;;;;;;;0.10;0.10;;;1.20;99.90;;;;;;4999102;28;20030;-83
2023/02/25 04:18:46;;;;;;;0.38;0.38;;;1.20;99.90;;;;;;5000586;28;20064;-83
2023/02/25 04:21:34;;;;;;;0.10;0.10;;;1.20;99.90;;;;;;5000562;28;20030;-84
2023/02/25 04:24:01;;;;;;;0.15;0.15;;;1.40;99.90;;;;;;4983431;28;20068;-84
2023/02/25 04:26:27;;;;;;;0.00;0.00;;;1.20;99.90;;;;;;4999463;28;20595;-84
2023/02/25 04:28:53;;;;;;;0.00;0.00;;;1.40;99.90;;;;;;4999729;28;21235;-84
2023/02/25 04:31:19;;;;;;;0.10;0.10;;;1.20;99.90;;;;;;4997100;28;20064;-83
2023/02/25 04:33:48;;;;;;;0.10;0.10;;;1.40;99.90;;;;;;4995904;28;20030;-83
2023/02/25 04:36:26;;;;;;;0.10;0.10;;;1.40;99.90;;;;;;4995057;28;20105;-83
2023/02/25 04:38:53;;;;;;;0.10;0.10;;;1.20;99.90;;;;;;4994851;28;20084;-83
2023/02/25 04:41:18;;;;;;;0.10;0.10;;;1.30;99.90;;;;;;5000058;28;20123;-84
2023/02/25 04:43:44;;;;;;;0.10;0.10;;;1.20;99.90;;;;;;4999610;28;20046;-84
2023/02/25 04:46:11;;;;;;;0.10;0.10;;;1.10;99.90;;;;;;4998979;28;20129;-84
2023/02/25 04:48:38;;;;;;;0.10;0.10;;;1.00;99.90;;;;;;4999121;28;20026;-84
2023/02/25 04:51:04;;;;;;;;;;;0.90;99.90;;;;;;4999590;28;20046;-84
2023/02/25 04:53:29;;;;;;;0.10;0.10;;;0.70;99.90;;;;;;5005427;28;20065;-85
2023/02/25 04:55:55;;;;;;;0.10;0.10;;;0.80;99.90;;;;;;5013969;28;20051;-84
2023/02/25 04:58:21;;;;;;;0.20;0.20;;;0.80;99.90;;;;;;4972004;28;20519;-84
2023/02/25 05:00:48;;;;;;;0.10;0.10;;;0.80;99.90;;;;;;5003855;28;20021;-84
2023/02/25 05:03:14;;;;;;;;;;;0.80;99.90;;;;;;5002910;28;20129;-83
2023/02/25 05:05:40;;;;;;;0.10;0.10;;;0.90;99.90;;;;;;5000660;28;19917;-82
2023/02/25 05:08:06;;;;;;;0.15;0.15;;;1.00;99.90;;;;;;5009640;28;20038;-82
2023/02/25 05:10:32;;;;;;;0.10;0.10;;;0.90;99.90;;;;;;5008598;28;20867;-82
2023/02/25 05:12:57;;;;;;;0.17;0.17;;;0.70;99.90;;;;;;5002109;28;20030;-83
2023/02/25 05:15:24;;;;;;;0.10;0.10;;;0.70;99.90;;;;;;5007256;28;20088;-83
2023/02/25 05:17:50;;;;;;;0.10;0.10;;;0.80;99.90;;;;;;5001345;28;20029;-83
2023/02/25 05:20:16;;;;;;;0.10;0.10;;;0.80;99.90;;;;;;5001341;28;20022;-84
2023/02/25 05:22:41;;;;;;;0.10;0.10;;;0.70;99.90;;;;;;5001778;28;20034;-81
2023/02/25 05:25:09;;;;;;;0.05;0.05;;;0.80;99.90;;;;;;5003265;28;20029;-83
2023/02/25 05:27:34;;;;;;;0.10;0.10;;;0.60;99.90;;;;;;5001418;28;20784;-83
2023/02/25 05:30:00;;;;;;;0.10;0.10;;;0.70;99.90;;;;;;4992746;28;20053;-83
2023/02/25 05:32:26;;;;;;;0.10;0.10;;;0.70;99.90;;;;;;4990943;28;20031;-84
2023/02/25 05:34:52;;;;;;;0.10;0.10;;;0.70;99.90;;;;;;4982405;28;20084;-82
2023/02/25 05:37:17;;;;;;;0.10;0.10;;;0.80;99.90;;;;;;4998128;28;20087;-82
2023/02/25 05:39:43;;;;;;;0.13;0.13;;;0.60;99.90;;;;;;4994621;28;20105;-81
2023/02/25 05:42:10;;;;;;;0.00;0.00;;;0.70;99.90;;;;;;4998344;28;20071;-83
2023/02/25 05:44:36;;;;;;;0.47;0.47;;;0.70;99.90;;;;;;4980117;28;20149;-82
2023/02/25 05:47:01;;;;;;;0.10;0.10;;;0.80;99.90;;;;;;5005699;28;20029;-83
2023/02/25 05:49:28;;;;;;;3.53;0.75;;;0.80;99.90;;;;;;5002679;28;20070;-82
2023/02/25 05:51:54;;;;;;;0.10;0.10;;;0.70;99.90;;;;;;5004880;28;20064;-83
2023/02/25 05:54:19;;;;;;;0.10;0.10;;;0.60;99.90;;;;;;5002057;28;20037;-83
2023/02/25 05:56:45;;;;;;;0.10;0.10;;;0.50;99.90;;;;;;4995098;28;20568;-83
2023/02/25 05:59:11;;;;;;;0.10;0.10;;;0.60;99.90;;;;;;4999360;28;20033;-82
2023/02/25 06:01:37;;;;;;;0.10;0.10;;;0.60;99.90;;;;;;4998529;28;20760;-84
2023/02/25 06:04:03;;;;;;;0.10;0.10;;;0.50;99.90;;;;;;5000435;28;20276;-85
2023/02/25 06:06:30;;;;;;;0.10;0.10;;;0.50;99.90;;;;;;5006969;28;20103;-82
2023/02/25 06:08:56;;;;;;;0.85;0.85;;;0.50;99.90;;;;;;4999214;28;20026;-79
2023/02/25 06:11:25;;;;;;;0.10;0.10;;;0.60;99.90;;;;;;4996113;28;20038;-81
2023/02/25 06:13:52;;;;;;;0.00;0.00;;;0.60;99.90;;;;;;5008934;28;20025;-79
2023/02/25 06:16:19;;;;;;;0.15;0.15;;;0.50;99.90;;;;;;4989501;28;20026;-80
2023/02/25 06:18:46;;;;;;;0.32;0.32;;;0.40;99.90;;;;;;5003706;28;20030;-80
2023/02/25 06:21:13;;;;;;;0.10;0.10;;;0.30;99.90;;;;;;5002769;28;20033;-80
2023/02/25 06:23:39;;;;;;;;;;;0.20;99.90;;;;;;4998042;28;20703;-80
2023/02/25 06:26:06;;;;;;;0.10;0.10;;;0.20;99.90;;;;;;5002000;28;19924;-80
2023/02/25 06:28:33;;;;;;;0.35;0.30;;;0.20;99.90;;;;;;5000990;28;20030;-80
2023/02/25 06:30:59;;;;;;;0.20;0.20;;;0.10;99.90;;;;;;5004538;28;20112;-81
2023/02/25 06:33:24;;;;;;;0.10;0.10;;;0.10;99.90;;;;;;4993215;28;20037;-79
2023/02/25 06:35:54;;;;;;;0.10;0.10;;;0.10;99.90;;;;;;4996182;28;20034;-80
2023/02/25 06:38:20;;;;;;;0.10;0.10;;;0.10;99.90;;;;;;5002912;28;20022;-80
2023/02/25 06:40:48;;;;;;;0.10;0.10;;;0.10;99.90;;;;;;5000460;28;20045;-80
2023/02/25 06:43:14;;;;;;;0.20;0.20;;;0.30;99.90;;;;;;5001687;28;20174;-81
2023/02/25 06:45:40;;;;;;;0.75;0.75;;;0.30;99.90;;;;;;5000961;28;20026;-82
2023/02/25 06:48:05;;;;;;;0.00;0.00;;;0.30;99.90;;;;;;5001600;28;20061;-80
2023/02/25 06:50:31;;;;;;;0.10;0.10;;;0.40;99.90;;;;;;4998492;28;20548;-79
2023/02/25 06:52:57;;;;;;;1.67;1.08;;;0.50;99.90;;;;;;4992007;28;20042;-79
2023/02/25 06:55:23;;;;;;;1.10;0.87;;;0.50;99.90;;;;;;5003804;28;20057;-79
2023/02/25 06:57:49;;;;;;;0.20;0.20;;;0.60;99.90;;;;;;4998747;28;20129;-80
2023/02/25 07:00:15;;;;;;;0.10;0.10;;;0.80;99.90;;;;;;4986232;28;20033;-80
2023/02/25 07:02:41;;;;;;;0.10;0.10;;;0.90;99.90;;;;;;5003082;28;20567;-80
2023/02/25 07:05:07;;;;;;;0.05;0.05;;;1.10;99.90;;;;;;5001153;28;20038;-79
2023/02/25 07:07:32;;;;;;;0.10;0.10;;;1.30;99.90;;;;;;5000746;28;20408;-81
2023/02/25 07:09:58;;;;;;;0.10;0.10;;;1.50;99.90;;;;;;5002372;28;20018;-81
2023/02/25 07:12:24;;;;;;;0.10;0.10;;;1.70;99.90;;;;;;4997354;28;20044;-79
2023/02/25 07:14:50;;;;;;;0.10;0.10;;;2.00;99.90;;;;;;5006163;28;20025;-79
2023/02/25 07:17:16;;;;;;;0.10;0.10;;;2.20;99.90;;;;;;4986729;28;20053;-80
2023/02/25 07:19:41;;;;;;;0.10;0.10;;;2.50;99.90;;;;;;4978710;28;20049;-79
2023/02/25 07:22:10;;;;;;;0.20;0.20;;;2.80;99.90;;;;;;4997287;28;20025;-79
2023/02/25 07:24:36;;;;;;;0.10;0.10;;;2.90;99.90;;;;;;4983286;28;20041;-82
2023/02/25 07:27:02;;;;;;;0.10;0.10;;;3.00;99.90;;;;;;4999536;28;20247;-79
2023/02/25 07:29:27;;;;;;;0.10;0.10;;;3.30;99.90;;;;;;5003408;28;20686;-79
2023/02/25 07:31:53;;;;;;;0.10;0.10;;;3.60;99.90;;;;;;5000582;28;20045;-79
2023/02/25 07:34:19;;;;;;;0.20;0.20;;;3.60;99.90;;;;;;4989268;28;20798;-79
2023/02/25 07:36:45;;;;;;;0.40;0.40;;;3.90;99.90;;;;;;5002781;28;20036;-79
2023/02/25 07:39:11;;;;;;;0.10;0.10;;;4.00;99.90;;;;;;5001178;28;20025;-79
2023/02/25 07:41:37;;;;;;;0.20;0.20;;;4.10;99.90;;;;;;4998271;28;20493;-79
2023/02/25 07:44:04;;;;;;;0.10;0.10;;;4.30;99.90;;;;;;4995523;28;20052;-80
2023/02/25 07:46:30;;;;;;;0.10;0.10;;;4.50;99.90;;;;;;4982050;28;20044;-80
2023/02/25 07:48:56;;;;;;;0.13;0.13;;;4.80;99.90;;;;;;4987341;28;20037;-79
2023/02/25 07:51:23;;;;;;;0.32;0.32;;;4.90;99.90;;;;;;5003198;28;20034;-80
2023/02/25 07:53:50;;;;;;;0.10;0.10;;;5.00;99.90;;;;;;4998884;28;20053;-81
2023/02/25 07:56:18;;;;;;;0.10;0.10;;;5.30;99.90;;;;;;4998017;28;20113;-79
2023/02/25 07:58:44;;;;;;;0.10;0.10;;;5.50;99.90;;;;;;5003028;28;20056;-79
2023/02/25 08:01:17;;;;;;;0.10;0.10;;;5.90;99.90;;;;;;5001093;28;20520;-81
2023/02/25 08:03:43;;;;;;;0.20;0.20;;;6.00;99.90;;;;;;4996153;28;20141;-81
2023/02/25 08:06:08;;;;;;;0.20;0.20;;;6.10;99.90;;;;;;4988179;28;20501;-81
2023/02/25 08:08:35;;;;;;;0.10;0.10;;;6.10;99.90;;;;;;4979462;28;20034;-80
2023/02/25 08:11:05;;;;;;;;;;;6.10;99.90;;;;;;4982258;28;20041;-80
2023/02/25 08:13:31;;;;;;;0.10;0.10;;;6.30;99.90;;;;;;5000323;28;20437;-80
2023/02/25 08:15:57;;;;;;;0.10;0.10;;;6.40;99.90;;;;;;4998275;28;20097;-80
2023/02/25 08:18:22;;;;;;;0.10;0.10;;;6.60;99.90;;;;;;4997005;28;20042;-79
2023/02/25 08:20:48;;;;;;;0.10;0.10;;;6.60;99.90;;;;;;4993934;28;20121;-83
2023/02/25 08:23:14;;;;;;;0.10;0.10;;;7.10;99.90;;;;;;4998374;28;20045;-81
2023/02/25 08:25:39;;;;;;;0.10;0.10;;;7.30;99.90;;;;;;4994049;28;20048;-80
2023/02/25 08:28:05;;;;;;;0.10;0.10;;;7.30;99.90;;;;;;4978501;28;20041;-81
2023/02/25 08:30:31;;;;;;;0.10;0.10;;;7.60;99.90;;;;;;5001153;28;20040;-80
2023/02/25 08:32:57;;;;;;;0.10;0.10;;;7.70;99.90;;;;;;4998070;28;20433;-80
2023/02/25 08:35:26;;;;;;;0.47;0.45;;;8.00;99.90;;;;;;4984198;28;20030;-80
2023/02/25 08:37:52;;;;;;;0.68;0.30;;;8.10;99.90;;;;;;5011553;28;20123;-80
2023/02/25 08:40:19;;;;;;;0.38;0.38;;;8.40;99.50;;;;;;4998558;28;20018;-80
2023/02/25 08:42:45;;;;;;;0.05;0.05;;;8.50;98.40;;;;;;5002179;28;20038;-80
2023/02/25 08:45:11;;;;;;;0.10;0.10;;;8.90;97.20;;;;;;4992227;28;20050;-80
2023/02/25 08:47:37;;;;;;;0.10;0.10;;;9.10;97.30;;;;;;4996255;28;20014;-79
2023/02/25 08:50:04;;;;;;;4.70;0.55;;;9.30;96.50;;;;;;5007015;28;20501;-80
2023/02/25 08:52:33;;;;;;;0.10;0.10;;;9.20;96.10;;;;;;4998242;28;20030;-80
2023/02/25 08:55:03;;;;;;;0.20;0.20;;;9.30;95.00;;;;;;5005025;28;20025;-79
2023/02/25 08:57:29;;;;;;;0.10;0.10;;;9.40;94.90;;;;;;5001747;28;20072;-80
2023/02/25 08:59:55;;;;;;;0.10;0.10;;;9.40;95.20;;;;;;4997406;28;20092;-80
2023/02/25 09:02:21;;;;;;;0.10;0.10;;;9.90;96.70;;;;;;4999710;28;20329;-80
2023/02/25 09:04:46;;;;;;;0.10;0.10;;;9.70;94.50;;;;;;4990726;28;20054;-80
2023/02/25 09:07:12;;;;;;;0.10;0.10;;;9.40;94.90;;;;;;5008677;28;20080;-80
2023/02/25 09:09:39;;;;;;;0.10;0.10;;;8.90;94.40;;;;;;5005937;28;20029;-80
2023/02/25 09:12:05;;;;;;;0.10;0.10;;;9.20;93.50;;;;;;4998760;28;20065;-80
2023/02/25 09:14:32;;;;;;;0.10;0.10;;;7.60;95.60;;;;;;5002046;28;20994;-80
2023/02/25 09:16:58;;;;;;;0.20;0.20;;;7.20;96.40;;;;;;4975457;28;20054;-80
2023/02/25 09:19:23;;;;;;;0.10;0.10;;;7.50;96.50;;;;;;5003837;28;20918;-80
2023/02/25 09:21:49;;;;;;;0.10;0.10;;;7.40;97.90;;;;;;4984358;28;20030;-80
2023/02/25 09:24:16;;;;;;;0.10;0.10;;;7.00;97.80;;;;;;4999408;28;20401;-80
2023/02/25 09:26:42;;;;;;;0.50;0.50;;;6.60;97.30;;;;;;4996445;28;20447;-80
2023/02/25 09:29:07;;;;;;;0.10;0.10;;;6.70;98.20;;;;;;5008884;28;20030;-79
2023/02/25 09:31:35;;;;;;;0.10;0.10;;;6.50;99.60;;;;;;5004517;28;20061;-80
2023/02/25 09:34:03;;;;;;;0.10;0.10;;;6.40;98.90;;;;;;4996177;28;20026;-80
2023/02/25 09:36:30;;;;;;;0.75;0.47;;;6.70;98.40;;;;;;5003237;28;20025;-79
2023/02/25 09:38:56;;;;;;;0.10;0.10;;;7.40;98.10;;;;;;5004238;28;20026;-80
2023/02/25 09:41:40;;;;;;;0.20;0.20;;;7.40;98.10;;;;;;5002145;28;20041;-80
2023/02/25 09:44:12;;;;;;;0.10;0.10;;;8.40;96.60;;;;;;5002087;28;21007;-80
2023/02/25 09:46:45;;;;;;;0.20;0.20;;;8.50;95.50;;;;;;4970009;28;20117;-80
2023/02/25 09:49:21;;;;;;;0.10;0.10;;;9.00;95.20;;;;;;4997586;28;20030;-80
2023/02/25 09:51:55;;;;;;;0.20;0.20;;;8.30;96.00;;;;;;4996048;28;20072;-81
2023/02/25 09:54:36;;;;;;;0.15;0.15;;;7.40;96.60;;;;;;5000894;28;20030;-81
2023/02/25 09:57:05;;;;;;;0.10;0.10;;;7.40;97.90;;;;;;4997700;28;20030;-81
2023/02/25 09:59:31;;;;;;;0.32;0.32;;;7.60;97.40;;;;;;4994894;28;20029;-81
2023/02/25 10:02:06;;;;;;;0.10;0.10;;;7.60;98.50;;;;;;4984388;28;20029;-81
2023/02/25 10:04:53;;;;;;;0.10;0.10;;;7.70;97.30;;;;;;5002137;28;20318;-80
2023/02/25 10:07:26;;;;;;;0.20;0.20;;;7.80;96.40;;;;;;5001485;28;20133;-80
2023/02/25 10:10:07;;;;;;;0.10;0.10;;;7.80;95.50;;;;;;4993150;28;20033;-80
2023/02/25 10:12:45;;;;;;;0.10;0.10;;;7.50;97.10;;;;;;4985927;28;20069;-79
2023/02/25 10:15:25;;;;;;;0.10;0.10;;;7.50;95.80;;;;;;4995656;28;20037;-82
2023/02/25 10:17:54;;;;;;;0.10;0.10;;;7.50;96.10;;;;;;5001612;28;20780;-79
2023/02/25 10:20:33;;;;;;;1.00;0.40;;;7.40;95.80;;;;;;5004353;28;20033;-79
2023/02/25 10:23:17;;;;;;;0.38;0.38;;;7.50;96.20;;;;;;4993522;28;20635;-84
2023/02/25 10:26:12;;;;;;;0.10;0.10;;;7.60;95.80;;;;;;5000297;28;20030;-79
2023/02/25 10:28:41;;;;;;;0.10;0.10;;;7.90;94.90;;;;;;5001604;28;20515;-79
2023/02/25 10:31:13;;;;;;;0.57;0.30;;;7.70;95.80;;;;;;5009784;28;20037;-80
2023/02/25 10:33:40;;;;;;;0.15;0.15;;;7.60;95.70;;;;;;5002253;28;20026;-78
2023/02/25 10:36:38;;;;;;;0.35;0.32;;;7.60;95.90;;;;;;5003985;28;20021;-80
2023/02/25 10:39:04;;;;;;;0.10;0.10;;;7.50;95.50;;;;;;5001327;28;20041;-80
2023/02/25 10:41:30;;;;;;;0.10;0.10;;;7.70;95.30;;;;;;4997412;28;20034;-83
2023/02/25 10:43:56;;;;;;;0.10;0.10;;;7.70;95.10;;;;;;4999598;28;20054;-81
2023/02/25 10:46:30;;;;;;;0.20;0.20;;;7.80;95.20;;;;;;5003555;28;20025;-79
2023/02/25 10:49:13;;;;;;;0.10;0.10;;;7.70;94.90;;;;;;5003327;28;20181;-79
2023/02/25 10:52:02;;;;;;;0.10;0.10;;;7.90;95.20;;;;;;4981166;28;20756;-79
2023/02/25 10:54:31;;;;;;;0.63;0.63;;;7.90;95.70;;;;;;4981071;28;20027;-77
2023/02/25 10:57:01;;;;;;;0.10;0.10;;;7.90;95.00;;;;;;4997710;28;20022;-80
2023/02/25 10:59:41;;;;;;;0.20;0.20;;;8.00;94.60;;;;;;4994091;28;20030;-79
2023/02/25 11:02:30;;;;;;;0.20;0.20;;;8.10;94.30;;;;;;4992320;28;20019;-79
2023/02/25 11:04:56;;;;;;;0.10;0.10;;;8.20;95.10;;;;;;4997680;28;20038;-78
2023/02/25 11:07:29;;;;;;;0.20;0.20;;;8.30;94.10;;;;;;5001526;28;20724;-78
2023/02/25 11:10:18;;;;;;;0.32;0.32;;;8.30;93.60;;;;;;4991908;28;20037;-79
2023/02/25 11:12:47;;;;;;;0.15;0.15;;;8.40;93.70;;;;;;4989241;28;20038;-78
2023/02/25 11:15:34;;;;;;;0.10;0.10;;;8.50;94.30;;;;;;4996107;28;20022;-77
2023/02/25 11:18:06;;;;;;;0.10;0.10;;;8.60;94.30;;;;;;4990654;28;20468;-78
2023/02/25 11:20:33;;;;;;;0.10;0.10;;;8.50;93.20;;;;;;4995370;28;20054;-78
2023/02/25 11:23:00;;;;;;;0.10;0.10;;;8.70;93.40;;;;;;4996351;28;20502;-79
2023/02/25 11:25:40;;;;;;;0.10;0.10;;;8.80;93.50;;;;;;4998270;28;20042;-79
2023/02/25 11:28:16;;;;;;;0.20;0.20;;;8.80;93.00;;;;;;4994492;28;20030;-78
2023/02/25 11:30:43;;;;;;;;;;;8.90;93.20;;;;;;4991954;28;20097;-79
2023/02/25 11:33:22;;;;;;;;;;;9.00;93.10;;;;;;4997774;28;19922;-77
2023/02/25 11:35:55;;;;;;;0.10;0.10;;;9.00;92.90;;;;;;5012769;28;19914;-79
2023/02/25 11:38:33;;;;;;;0.10;0.10;;;9.20;93.20;;;;;;4996757;28;20045;-80
2023/02/25 11:40:59;;;;;;;0.73;0.55;;;9.30;92.20;;;;;;4997038;28;20586;-79
2023/02/25 11:43:43;;;;;;;0.20;0.20;;;9.30;92.20;;;;;;5006536;28;20145;-79
2023/02/25 11:46:21;;;;;;;0.10;0.10;;;9.60;91.50;;;;;;4996066;28;20022;-78
2023/02/25 11:48:57;;;;;;;0.10;0.10;;;9.70;91.80;;;;;;4982747;28;20049;-77
2023/02/25 11:51:30;;;;;;;0.10;0.10;;;9.60;91.10;;;;;;4999109;28;20133;-79
2023/02/25 11:54:17;;;;;;;0.10;0.10;;;9.60;91.20;;;;;;5001394;28;20074;-79
2023/02/25 11:56:47;;;;;;;;;;;9.70;90.80;;;;;;5001204;28;20058;-80
2023/02/25 11:59:47;;;;;;;0.10;0.10;;;9.80;91.10;;;;;;4998241;28;20097;-78
2023/02/25 12:02:41;;;;;;;0.10;0.10;;;9.80;90.20;;;;;;5002247;28;20380;-78
2023/02/25 12:05:13;;;;;;;0.10;0.10;;;10.20;92.70;;;;;;4995257;28;20527;-78
2023/02/25 12:08:11;;;;;;;0.20;0.20;;;10.10;90.50;;;;;;4995370;28;20030;-79
2023/02/25 12:11:18;;;;;;;0.10;0.10;;;9.70;89.70;;;;;;4993230;28;20049;-78
2023/02/25 12:14:16;;;;;;;0.32;0.32;;;9.80;91.60;;;;;;4995111;28;20038;-78
2023/02/25 12:17:17;;;;;;;0.10;0.10;;;9.70;90.50;;;;;;4975015;28;20568;-77
2023/02/25 12:20:33;;;;;;;0.10;0.10;;;9.60;90.80;;;;;;4994787;28;20064;-78
2023/02/25 12:23:25;;;;;;;0.43;0.43;;;9.70;90.60;;;;;;4946073;28;20114;-78
2023/02/25 12:26:14;;;;;;;0.10;0.10;;;9.50;90.90;;;;;;4929894;28;20751;-79
2023/02/25 12:28:53;;;;;;;0.20;0.20;;;9.50;93.50;;;;;;4982094;28;20045;-78
2023/02/25 12:31:22;;;;;;;0.30;0.30;;;9.30;90.30;;;;;;5011140;28;20501;-78
2023/02/25 12:34:15;;;;;;;0.10;0.10;;;9.20;90.30;;;;;;4992525;28;20746;-79
2023/02/25 12:36:57;;;;;;;0.13;0.13;;;9.20;92.50;;;;;;4999895;28;20041;-78
2023/02/25 12:39:28;;;;;;;0.40;0.40;;;9.30;91.00;;;;;;4996818;28;20478;-77
2023/02/25 12:42:21;;;;;;;0.10;0.10;;;9.30;91.70;;;;;;5002736;28;20027;-77
2023/02/25 12:45:04;;;;;;;0.10;0.10;;;9.40;91.40;;;;;;4994175;28;20057;-77
2023/02/25 12:47:52;;;;;;;0.13;0.13;;;9.30;91.20;;;;;;4980698;28;20030;-78
2023/02/25 12:50:51;;;;;;;0.10;0.10;;;9.20;88.80;;;;;;4993252;28;20448;-78
2023/02/25 12:53:55;;;;;;;0.10;0.10;;;9.30;90.80;;;;;;5000593;28;20026;-78
2023/02/25 12:56:59;;;;;;;0.10;0.10;;;9.30;88.20;;;;;;4976757;28;20096;-79
2023/02/25 13:00:01;;;;;;;0.32;0.32;;;9.40;88.00;;;;;;4964151;28;20069;-78
2023/02/25 13:02:41;;;;;;;0.10;0.10;;;9.50;89.20;;;;;;5001199;28;20038;-78
2023/02/25 13:05:18;;;;;;;5.10;1.38;;;9.50;90.00;;;;;;4995685;28;20150;-80
2023/02/25 13:08:22;;;;;;;0.20;0.20;;;9.50;89.10;;;;;;5000076;28;20478;-78
2023/02/25 13:11:10;;;;;;;0.10;0.10;;;9.50;87.90;;;;;;4996543;28;20128;-79
2023/02/25 13:14:02;;;;;;;0.10;0.10;;;9.80;85.60;;;;;;4998009;28;20056;-79
2023/02/25 13:16:39;;;;;;;0.10;0.10;;;10.10;86.50;;;;;;5001239;28;20053;-79
2023/02/25 13:19:53;;;;;;;0.10;0.10;;;10.00;85.00;;;;;;4999731;28;20076;-78
2023/02/25 13:22:38;;;;;;;0.45;0.45;;;10.00;84.20;;;;;;4960619;28;20729;-78